sensor_id;sensor_type;location;lat;lon;timestamp;pressure;altitude;pressure_sealevel;temperature;humidity
23363;BME280;11853;48.080;11.960;2023-06-05T00:01:34;94864.28;;;17.66;78.14
23363;BME280;11853;48.080;11.960;2023-06-05T00:04:00;94868.78;;;17.65;78.58
23363;BME280;11853;48.080;11.960;2023-06-05T00:06:26;94864.84;;;17.61;79.00
23363;BME280;11853;48.080;11.960;2023-06-05T00:08:52;94859.88;;;17.58;79.56
23363;BME280;11853;48.080;11.960;2023-06-05T00:11:17;94863.97;;;17.54;79.67
23363;BME280;11853;48.080;11.960;2023-06-05T00:13:43;94861.84;;;17.43;80.93
23363;BME280;11853;48.080;11.960;2023-06-05T00:16:08;94860.41;;;17.47;81.24
23363;BME280;11853;48.080;11.960;2023-06-05T00:18:34;94862.44;;;17.45;81.11
23363;BME280;11853;48.080;11.960;2023-06-05T00:20:59;94866.34;;;17.42;81.89
23363;BME280;11853;48.080;11.960;2023-06-05T00:23:25;94868.47;;;17.47;81.98
23363;BME280;11853;48.080;11.960;2023-06-05T00:25:51;94866.41;;;17.49;81.93
23363;BME280;11853;48.080;11.960;2023-06-05T00:28:16;94861.66;;;17.51;81.79
23363;BME280;11853;48.080;11.960;2023-06-05T00:30:42;94868.31;;;17.55;81.76
23363;BME280;11853;48.080;11.960;2023-06-05T00:33:07;94865.22;;;17.51;81.94
23363;BME280;11853;48.080;11.960;2023-06-05T00:35:33;94868.50;;;17.53;82.18
23363;BME280;11853;48.080;11.960;2023-06-05T00:37:58;94868.91;;;17.50;82.63
23363;BME280;11853;48.080;11.960;2023-06-05T00:40:24;94855.22;;;17.45;82.38
23363;BME280;11853;48.080;11.960;2023-06-05T00:42:49;94853.84;;;17.49;82.32
23363;BME280;11853;48.080;11.960;2023-06-05T00:45:15;94851.97;;;17.50;82.90
23363;BME280;11853;48.080;11.960;2023-06-05T00:47:41;94856.91;;;17.46;83.31
23363;BME280;11853;48.080;11.960;2023-06-05T00:50:07;94844.19;;;17.55;83.05
23363;BME280;11853;48.080;11.960;2023-06-05T00:52:33;94846.19;;;17.46;83.53
23363;BME280;11853;48.080;11.960;2023-06-05T00:55:01;94848.22;;;17.44;84.12
23363;BME280;11853;48.080;11.960;2023-06-05T00:57:27;94829.19;;;17.39;84.83
23363;BME280;11853;48.080;11.960;2023-06-05T00:59:53;94849.81;;;17.39;85.45
23363;BME280;11853;48.080;11.960;2023-06-05T01:02:19;94845.50;;;17.38;85.79
23363;BME280;11853;48.080;11.960;2023-06-05T01:04:45;94845.25;;;17.32;86.31
23363;BME280;11853;48.080;11.960;2023-06-05T01:07:13;94847.25;;;17.24;86.74
23363;BME280;11853;48.080;11.960;2023-06-05T01:09:40;94848.06;;;17.24;87.11
23363;BME280;11853;48.080;11.960;2023-06-05T01:12:17;94851.78;;;17.23;87.61
23363;BME280;11853;48.080;11.960;2023-06-05T01:14:48;94844.34;;;17.25;87.41
23363;BME280;11853;48.080;11.960;2023-06-05T01:17:14;94852.16;;;17.20;88.18
23363;BME280;11853;48.080;11.960;2023-06-05T01:19:43;94846.16;;;17.18;88.34
23363;BME280;11853;48.080;11.960;2023-06-05T01:22:09;94844.72;;;17.22;88.40
23363;BME280;11853;48.080;11.960;2023-06-05T01:24:35;94837.97;;;17.26;88.60
23363;BME280;11853;48.080;11.960;2023-06-05T01:27:14;94852.25;;;17.33;88.15
23363;BME280;11853;48.080;11.960;2023-06-05T01:32:47;94840.06;;;17.31;88.88
23363;BME280;11853;48.080;11.960;2023-06-05T01:35:20;94838.41;;;17.30;89.14
23363;BME280;11853;48.080;11.960;2023-06-05T01:37:48;94844.81;;;17.29;89.34
23363;BME280;11853;48.080;11.960;2023-06-05T01:40:16;94831.97;;;17.24;89.55
23363;BME280;11853;48.080;11.960;2023-06-05T01:42:43;94831.16;;;17.24;90.04
23363;BME280;11853;48.080;11.960;2023-06-05T01:45:10;94835.28;;;17.26;89.99
23363;BME280;11853;48.080;11.960;2023-06-05T01:47:36;94834.41;;;17.19;90.29
23363;BME280;11853;48.080;11.960;2023-06-05T01:50:05;94831.84;;;17.11;91.58
23363;BME280;11853;48.080;11.960;2023-06-05T01:52:36;94835.31;;;17.05;91.60
23363;BME280;11853;48.080;11.960;2023-06-05T01:55:06;94836.34;;;17.04;92.16
23363;BME280;11853;48.080;11.960;2023-06-05T01:57:32;94838.84;;;17.05;92.59
23363;BME280;11853;48.080;11.960;2023-06-05T01:59:59;94833.66;;;17.04;92.67
23363;BME280;11853;48.080;11.960;2023-06-05T02:02:29;94835.56;;;17.10;92.34
23363;BME280;11853;48.080;11.960;2023-06-05T02:04:55;94835.00;;;17.15;92.05
23363;BME280;11853;48.080;11.960;2023-06-05T02:07:24;94833.41;;;17.20;91.93
23363;BME280;11853;48.080;11.960;2023-06-05T02:09:50;94835.47;;;17.25;92.15
23363;BME280;11853;48.080;11.960;2023-06-05T02:12:16;94833.81;;;17.24;92.08
23363;BME280;11853;48.080;11.960;2023-06-05T02:14:41;94840.66;;;17.26;92.28
23363;BME280;11853;48.080;11.960;2023-06-05T02:17:10;94831.78;;;17.26;92.35
23363;BME280;11853;48.080;11.960;2023-06-05T02:19:41;94835.09;;;17.28;92.26
23363;BME280;11853;48.080;11.960;2023-06-05T02:22:07;94840.66;;;17.26;92.54
23363;BME280;11853;48.080;11.960;2023-06-05T02:24:33;94831.72;;;17.19;92.95
23363;BME280;11853;48.080;11.960;2023-06-05T02:27:00;94827.78;;;17.15;93.64
23363;BME280;11853;48.080;11.960;2023-06-05T02:29:25;94831.97;;;17.24;93.17
23363;BME280;11853;48.080;11.960;2023-06-05T02:31:51;94833.97;;;17.16;94.02
23363;BME280;11853;48.080;11.960;2023-06-05T02:34:17;94818.44;;;17.11;94.09
23363;BME280;11853;48.080;11.960;2023-06-05T02:36:43;94823.44;;;17.14;94.30
23363;BME280;11853;48.080;11.960;2023-06-05T02:39:11;94829.03;;;17.19;93.67
23363;BME280;11853;48.080;11.960;2023-06-05T02:41:38;94815.00;;;17.17;94.12
23363;BME280;11853;48.080;11.960;2023-06-05T02:44:03;94813.56;;;17.15;94.19
23363;BME280;11853;48.080;11.960;2023-06-05T02:46:29;94814.50;;;17.07;94.63
23363;BME280;11853;48.080;11.960;2023-06-05T02:48:54;94811.09;;;16.92;95.54
23363;BME280;11853;48.080;11.960;2023-06-05T02:51:20;94815.16;;;16.87;96.45
23363;BME280;11853;48.080;11.960;2023-06-05T02:53:46;94814.38;;;16.94;96.12
23363;BME280;11853;48.080;11.960;2023-06-05T02:56:11;94817.44;;;16.91;96.48
23363;BME280;11853;48.080;11.960;2023-06-05T02:58:38;94811.88;;;16.85;97.09
23363;BME280;11853;48.080;11.960;2023-06-05T03:01:05;94814.56;;;16.71;98.01
23363;BME280;11853;48.080;11.960;2023-06-05T03:03:33;94811.81;;;16.64;98.94
23363;BME280;11853;48.080;11.960;2023-06-05T03:06:00;94812.47;;;16.66;99.17
23363;BME280;11853;48.080;11.960;2023-06-05T03:08:35;94809.84;;;16.73;99.17
23363;BME280;11853;48.080;11.960;2023-06-05T03:11:02;94811.78;;;16.79;98.11
23363;BME280;11853;48.080;11.960;2023-06-05T03:13:28;94809.84;;;16.73;98.39
23363;BME280;11853;48.080;11.960;2023-06-05T03:15:55;94808.75;;;16.67;98.99
23363;BME280;11853;48.080;11.960;2023-06-05T03:18:27;94808.31;;;16.63;99.54
23363;BME280;11853;48.080;11.960;2023-06-05T03:20:53;94812.19;;;16.61;99.72
23363;BME280;11853;48.080;11.960;2023-06-05T03:23:26;94808.88;;;16.59;100.00
23363;BME280;11853;48.080;11.960;2023-06-05T03:25:53;94803.13;;;16.62;100.00
23363;BME280;11853;48.080;11.960;2023-06-05T03:28:19;94805.25;;;16.66;100.00
23363;BME280;11853;48.080;11.960;2023-06-05T03:30:46;94817.69;;;16.74;99.63
23363;BME280;11853;48.080;11.960;2023-06-05T03:33:12;94805.59;;;16.78;99.59
23363;BME280;11853;48.080;11.960;2023-06-05T03:35:39;94803.94;;;16.77;98.97
23363;BME280;11853;48.080;11.960;2023-06-05T03:38:09;94805.59;;;16.78;99.26
23363;BME280;11853;48.080;11.960;2023-06-05T03:40:35;94802.91;;;16.78;99.30
23363;BME280;11853;48.080;11.960;2023-06-05T03:43:01;94797.56;;;16.78;99.38
23363;BME280;11853;48.080;11.960;2023-06-05T03:48:31;94805.22;;;16.81;99.11
23363;BME280;11853;48.080;11.960;2023-06-05T03:50:56;94803.56;;;16.80;98.84
23363;BME280;11853;48.080;11.960;2023-06-05T03:53:23;94811.41;;;16.82;98.97
23363;BME280;11853;48.080;11.960;2023-06-05T03:55:49;94800.97;;;16.72;98.85
23363;BME280;11853;48.080;11.960;2023-06-05T03:58:18;94804.69;;;16.71;99.36
23363;BME280;11853;48.080;11.960;2023-06-05T04:00:46;94799.34;;;16.71;99.61
23363;BME280;11853;48.080;11.960;2023-06-05T04:03:14;94806.91;;;16.67;99.69
23363;BME280;11853;48.080;11.960;2023-06-05T04:05:41;94810.06;;;16.71;100.00
23363;BME280;11853;48.080;11.960;2023-06-05T04:08:10;94808.81;;;16.74;99.67
23363;BME280;11853;48.080;11.960;2023-06-05T04:10:36;94812.00;;;16.77;99.89
23363;BME280;11853;48.080;11.960;2023-06-05T04:13:02;94811.22;;;16.83;99.53
23363;BME280;11853;48.080;11.960;2023-06-05T04:15:28;94815.16;;;16.87;99.60
23363;BME280;11853;48.080;11.960;2023-06-05T04:17:53;94817.44;;;16.91;99.45
23363;BME280;11853;48.080;11.960;2023-06-05T04:20:19;94821.59;;;16.93;99.84
23363;BME280;11853;48.080;11.960;2023-06-05T04:22:45;94826.97;;;16.93;99.77
23363;BME280;11853;48.080;11.960;2023-06-05T04:25:11;94829.19;;;16.89;99.75
23363;BME280;11853;48.080;11.960;2023-06-05T04:27:41;94825.06;;;16.87;99.80
23363;BME280;11853;48.080;11.960;2023-06-05T04:30:09;94827.16;;;16.92;99.92
23363;BME280;11853;48.080;11.960;2023-06-05T04:32:36;94825.09;;;16.94;99.18
23363;BME280;11853;48.080;11.960;2023-06-05T04:35:07;94825.38;;;16.99;99.55
23363;BME280;11853;48.080;11.960;2023-06-05T04:37:36;94817.13;;;17.00;99.79
23363;BME280;11853;48.080;11.960;2023-06-05T04:40:03;94823.97;;;17.03;99.85
23363;BME280;11853;48.080;11.960;2023-06-05T04:42:35;94826.44;;;17.04;100.00
23363;BME280;11853;48.080;11.960;2023-06-05T04:45:03;94830.81;;;17.05;99.55
23363;BME280;11853;48.080;11.960;2023-06-05T04:47:30;94817.00;;;17.08;99.20
23363;BME280;11853;48.080;11.960;2023-06-05T04:50:03;94818.00;;;17.07;99.13
23363;BME280;11853;48.080;11.960;2023-06-05T04:52:33;94821.50;;;17.08;98.44
23363;BME280;11853;48.080;11.960;2023-06-05T04:55:00;94825.22;;;17.07;98.43
23363;BME280;11853;48.080;11.960;2023-06-05T04:57:29;94826.84;;;17.01;98.52
23363;BME280;11853;48.080;11.960;2023-06-05T04:59:55;94830.97;;;17.04;98.76
23363;BME280;11853;48.080;11.960;2023-06-05T05:02:24;94826.66;;;17.03;98.20
23363;BME280;11853;48.080;11.960;2023-06-05T05:04:49;94833.91;;;17.09;98.09
23363;BME280;11853;48.080;11.960;2023-06-05T05:07:15;94836.84;;;17.14;98.29
23363;BME280;11853;48.080;11.960;2023-06-05T05:09:44;94832.75;;;17.18;98.21
23363;BME280;11853;48.080;11.960;2023-06-05T05:12:10;94831.16;;;17.24;97.47
23363;BME280;11853;48.080;11.960;2023-06-05T05:14:36;94836.56;;;17.30;97.63
23363;BME280;11853;48.080;11.960;2023-06-05T05:17:03;94824.81;;;17.31;97.67
23363;BME280;11853;48.080;11.960;2023-06-05T05:19:28;94826.47;;;17.32;97.13
23363;BME280;11853;48.080;11.960;2023-06-05T05:21:54;94822.31;;;17.30;96.23
23363;BME280;11853;48.080;11.960;2023-06-05T05:24:20;94834.91;;;17.29;96.92
23363;BME280;11853;48.080;11.960;2023-06-05T05:26:45;94829.09;;;17.26;96.67
23363;BME280;11853;48.080;11.960;2023-06-05T05:29:11;94836.56;;;17.30;95.73
23363;BME280;11853;48.080;11.960;2023-06-05T05:31:37;94842.75;;;17.31;96.04
23363;BME280;11853;48.080;11.960;2023-06-05T05:34:02;94843.19;;;17.34;95.70
23363;BME280;11853;48.080;11.960;2023-06-05T05:36:28;94840.13;;;17.38;95.73
23363;BME280;11853;48.080;11.960;2023-06-05T05:38:54;94841.59;;;17.40;95.69
23363;BME280;11853;48.080;11.960;2023-06-05T05:41:19;94841.63;;;17.47;96.12
23363;BME280;11853;48.080;11.960;2023-06-05T05:43:46;94850.13;;;17.50;95.71
23363;BME280;11853;48.080;11.960;2023-06-05T05:46:12;94855.09;;;17.53;94.66
23363;BME280;11853;48.080;11.960;2023-06-05T05:48:37;94850.75;;;17.52;95.15
23363;BME280;11853;48.080;11.960;2023-06-05T05:51:04;94853.88;;;17.56;94.66
23363;BME280;11853;48.080;11.960;2023-06-05T05:53:30;94856.91;;;17.46;94.80
23363;BME280;11853;48.080;11.960;2023-06-05T05:55:56;94863.66;;;17.42;95.27
23363;BME280;11853;48.080;11.960;2023-06-05T05:58:21;94859.38;;;17.48;95.36
23363;BME280;11853;48.080;11.960;2023-06-05T06:00:47;94847.00;;;17.47;95.49
23363;BME280;11853;48.080;11.960;2023-06-05T06:03:13;94854.47;;;17.51;94.87
23363;BME280;11853;48.080;11.960;2023-06-05T06:05:40;94849.94;;;17.52;95.27
23363;BME280;11853;48.080;11.960;2023-06-05T06:08:06;94854.25;;;17.53;94.73
23363;BME280;11853;48.080;11.960;2023-06-05T06:10:32;94853.72;;;17.36;96.28
23363;BME280;11853;48.080;11.960;2023-06-05T06:12:58;94853.16;;;17.41;96.60
23363;BME280;11853;48.080;11.960;2023-06-05T06:15:24;94856.47;;;17.43;96.65
23363;BME280;11853;48.080;11.960;2023-06-05T06:17:50;94856.00;;;17.39;96.26
23363;BME280;11853;48.080;11.960;2023-06-05T06:20:15;94863.06;;;17.40;96.60
23363;BME280;11853;48.080;11.960;2023-06-05T06:22:41;94858.13;;;17.44;95.43
23363;BME280;11853;48.080;11.960;2023-06-05T06:25:09;94860.66;;;17.52;95.25
23363;BME280;11853;48.080;11.960;2023-06-05T06:27:36;94857.09;;;17.45;95.60
23363;BME280;11853;48.080;11.960;2023-06-05T06:30:03;94853.78;;;17.43;95.95
23363;BME280;11853;48.080;11.960;2023-06-05T06:32:29;94854.91;;;17.55;95.11
23363;BME280;11853;48.080;11.960;2023-06-05T06:34:55;94852.78;;;17.50;94.53
23363;BME280;11853;48.080;11.960;2023-06-05T06:37:21;94851.97;;;17.50;95.36
23363;BME280;11853;48.080;11.960;2023-06-05T06:39:48;94859.47;;;17.61;94.61
23363;BME280;11853;48.080;11.960;2023-06-05T06:42:13;94861.81;;;17.71;94.47
23363;BME280;11853;48.080;11.960;2023-06-05T06:44:39;94855.09;;;17.82;93.43
23363;BME280;11853;48.080;11.960;2023-06-05T06:47:05;94859.66;;;17.81;93.86
23363;BME280;11853;48.080;11.960;2023-06-05T06:49:31;94851.00;;;17.86;94.66
23363;BME280;11853;48.080;11.960;2023-06-05T06:51:57;94864.91;;;17.96;93.83
23363;BME280;11853;48.080;11.960;2023-06-05T06:54:22;94858.31;;;17.98;93.78
23363;BME280;11853;48.080;11.960;2023-06-05T06:56:50;94862.75;;;18.19;93.39
23363;BME280;11853;48.080;11.960;2023-06-05T06:59:16;94859.69;;;18.29;90.27
23363;BME280;11853;48.080;11.960;2023-06-05T07:01:43;94857.19;;;18.21;90.65
23363;BME280;11853;48.080;11.960;2023-06-05T07:04:11;94858.63;;;18.23;91.45
23363;BME280;11853;48.080;11.960;2023-06-05T07:06:38;94862.78;;;18.26;91.05
23363;BME280;11853;48.080;11.960;2023-06-05T07:09:03;94863.84;;;18.32;92.11
23363;BME280;11853;48.080;11.960;2023-06-05T07:11:29;94878.53;;;18.42;90.77
23363;BME280;11853;48.080;11.960;2023-06-05T07:13:55;94873.63;;;18.46;90.35
23363;BME280;11853;48.080;11.960;2023-06-05T07:16:20;94871.13;;;18.51;88.67
23363;BME280;11853;48.080;11.960;2023-06-05T07:18:46;94866.81;;;18.57;89.51
23363;BME280;11853;48.080;11.960;2023-06-05T07:21:11;94866.81;;;18.57;89.26
23363;BME280;11853;48.080;11.960;2023-06-05T07:23:37;94867.88;;;18.62;88.37
23363;BME280;11853;48.080;11.960;2023-06-05T07:26:04;94869.09;;;18.60;88.07
23363;BME280;11853;48.080;11.960;2023-06-05T07:28:30;94868.06;;;18.54;89.02
23363;BME280;11853;48.080;11.960;2023-06-05T07:30:55;94867.25;;;18.60;88.56
23363;BME280;11853;48.080;11.960;2023-06-05T07:33:21;94865.63;;;18.66;89.85
23363;BME280;11853;48.080;11.960;2023-06-05T07:35:46;94863.81;;;18.80;89.68
23363;BME280;11853;48.080;11.960;2023-06-05T07:38:14;94858.47;;;18.93;88.62
23363;BME280;11853;48.080;11.960;2023-06-05T07:40:40;94858.28;;;18.95;87.08
23363;BME280;11853;48.080;11.960;2023-06-05T07:43:05;94863.03;;;18.99;86.08
23363;BME280;11853;48.080;11.960;2023-06-05T07:45:31;94865.94;;;19.04;86.87
23363;BME280;11853;48.080;11.960;2023-06-05T07:47:57;94860.97;;;19.08;85.35
23363;BME280;11853;48.080;11.960;2023-06-05T07:50:22;94863.88;;;19.20;85.66
23363;BME280;11853;48.080;11.960;2023-06-05T07:52:48;94868.03;;;19.29;82.84
23363;BME280;11853;48.080;11.960;2023-06-05T07:55:13;94854.78;;;19.34;82.45
23363;BME280;11853;48.080;11.960;2023-06-05T07:57:39;94869.28;;;19.33;83.22
23363;BME280;11853;48.080;11.960;2023-06-05T08:00:05;94862.25;;;19.39;82.60
23363;BME280;11853;48.080;11.960;2023-06-05T08:02:35;94861.00;;;19.54;81.95
23363;BME280;11853;48.080;11.960;2023-06-05T08:05:02;94861.41;;;19.51;80.11
23363;BME280;11853;48.080;11.960;2023-06-05T08:07:28;94861.00;;;19.41;81.76
23363;BME280;11853;48.080;11.960;2023-06-05T08:09:53;94856.88;;;19.39;80.96
23363;BME280;11853;48.080;11.960;2023-06-05T08:12:19;94860.16;;;19.54;80.28
23363;BME280;11853;48.080;11.960;2023-06-05T08:14:44;94858.31;;;19.41;80.53
23363;BME280;11853;48.080;11.960;2023-06-05T08:17:10;94855.41;;;19.36;81.21
23363;BME280;11853;48.080;11.960;2023-06-05T08:19:36;94854.38;;;19.37;81.70
23363;BME280;11853;48.080;11.960;2023-06-05T08:22:02;94860.16;;;19.47;81.48
23363;BME280;11853;48.080;11.960;2023-06-05T08:24:29;94859.97;;;19.55;80.34
23363;BME280;11853;48.080;11.960;2023-06-05T08:26:54;94861.00;;;19.61;81.45
23363;BME280;11853;48.080;11.960;2023-06-05T08:29:20;94856.69;;;19.67;81.01
23363;BME280;11853;48.080;11.960;2023-06-05T08:31:46;94858.09;;;19.76;80.81
23363;BME280;11853;48.080;11.960;2023-06-05T08:34:12;94852.94;;;19.74;77.94
23363;BME280;11853;48.080;11.960;2023-06-05T08:36:37;94853.53;;;19.76;79.22
23363;BME280;11853;48.080;11.960;2023-06-05T08:39:03;94856.63;;;19.80;78.47
23363;BME280;11853;48.080;11.960;2023-06-05T08:41:30;94845.88;;;19.87;77.57
23363;BME280;11853;48.080;11.960;2023-06-05T08:43:58;94852.31;;;19.79;78.48
23363;BME280;11853;48.080;11.960;2023-06-05T08:46:29;94845.88;;;19.80;77.95
23363;BME280;11853;48.080;11.960;2023-06-05T08:48:57;94844.44;;;19.84;78.62
23363;BME280;11853;48.080;11.960;2023-06-05T08:51:23;94849.81;;;19.97;78.47
23363;BME280;11853;48.080;11.960;2023-06-05T08:53:57;94848.88;;;20.17;76.90
23363;BME280;11853;48.080;11.960;2023-06-05T08:56:28;94845.09;;;20.31;75.17
23363;BME280;11853;48.080;11.960;2023-06-05T08:58:57;94847.00;;;20.24;76.54
23363;BME280;11853;48.080;11.960;2023-06-05T09:01:23;94849.28;;;20.27;75.86
23363;BME280;11853;48.080;11.960;2023-06-05T09:03:48;94857.56;;;20.25;77.27
23363;BME280;11853;48.080;11.960;2023-06-05T09:06:14;94857.72;;;20.37;76.65
23363;BME280;11853;48.080;11.960;2023-06-05T09:08:39;94855.22;;;20.49;75.19
23363;BME280;11853;48.080;11.960;2023-06-05T09:11:25;94854.97;;;20.64;73.54
23363;BME280;11853;48.080;11.960;2023-06-05T09:13:53;94854.16;;;20.63;75.47
23363;BME280;11853;48.080;11.960;2023-06-05T09:16:20;94847.41;;;20.79;75.28
23363;BME280;11853;48.080;11.960;2023-06-05T09:18:53;94856.44;;;20.98;74.01
23363;BME280;11853;48.080;11.960;2023-06-05T09:21:19;94850.78;;;21.06;72.52
23363;BME280;11853;48.080;11.960;2023-06-05T09:23:45;94857.00;;;21.07;73.53
23363;BME280;11853;48.080;11.960;2023-06-05T09:26:10;94857.56;;;21.15;72.83
23363;BME280;11853;48.080;11.960;2023-06-05T09:28:54;94845.84;;;21.28;70.99
23363;BME280;11853;48.080;11.960;2023-06-05T09:31:20;94851.25;;;21.28;71.47
23363;BME280;11853;48.080;11.960;2023-06-05T09:33:54;94854.50;;;21.44;71.97
23363;BME280;11853;48.080;11.960;2023-06-05T09:36:21;94850.53;;;21.46;70.77
23363;BME280;11853;48.080;11.960;2023-06-05T09:38:46;94852.25;;;21.41;69.38
23363;BME280;11853;48.080;11.960;2023-06-05T09:41:14;94849.53;;;21.41;70.25
23363;BME280;11853;48.080;11.960;2023-06-05T09:43:46;94849.53;;;21.34;72.01
23363;BME280;11853;48.080;11.960;2023-06-05T09:46:14;94848.34;;;21.30;69.95
23363;BME280;11853;48.080;11.960;2023-06-05T09:48:41;94849.25;;;21.49;69.98
23363;BME280;11853;48.080;11.960;2023-06-05T09:51:14;94849.75;;;21.64;69.76
23363;BME280;11853;48.080;11.960;2023-06-05T09:53:41;94848.88;;;21.70;67.45
23363;BME280;11853;48.080;11.960;2023-06-05T09:56:09;94848.94;;;21.64;69.44
23363;BME280;11853;48.080;11.960;2023-06-05T09:58:37;94846.72;;;21.54;68.88
23363;BME280;11853;48.080;11.960;2023-06-05T10:01:05;94841.59;;;21.46;69.80
23363;BME280;11853;48.080;11.960;2023-06-05T10:03:35;94838.50;;;21.42;69.83
23363;BME280;11853;48.080;11.960;2023-06-05T10:06:04;94834.53;;;21.45;69.77
23363;BME280;11853;48.080;11.960;2023-06-05T10:08:31;94831.09;;;21.38;70.29
23363;BME280;11853;48.080;11.960;2023-06-05T10:10:57;94827.66;;;21.17;69.23
23363;BME280;11853;48.080;11.960;2023-06-05T10:13:23;94836.19;;;21.14;70.56
23363;BME280;11853;48.080;11.960;2023-06-05T10:15:52;94840.22;;;21.05;70.89
23363;BME280;11853;48.080;11.960;2023-06-05T10:18:19;94832.06;;;20.80;72.05
23363;BME280;11853;48.080;11.960;2023-06-05T10:20:46;94838.44;;;20.85;73.13
23363;BME280;11853;48.080;11.960;2023-06-05T10:23:15;94830.28;;;20.99;71.07
23363;BME280;11853;48.080;11.960;2023-06-05T10:25:43;94835.91;;;20.52;72.32
23363;BME280;11853;48.080;11.960;2023-06-05T10:28:34;94837.97;;;20.57;72.39
23363;BME280;11853;48.080;11.960;2023-06-05T10:31:18;94825.56;;;20.56;72.09
23363;BME280;11853;48.080;11.960;2023-06-05T10:34:12;94837.84;;;20.38;72.82
23363;BME280;11853;48.080;11.960;2023-06-05T10:39:39;94839.72;;;20.38;74.02
23363;BME280;11853;48.080;11.960;2023-06-05T10:42:05;94833.31;;;20.32;74.25
23363;BME280;11853;48.080;11.960;2023-06-05T10:44:43;94830.78;;;20.44;73.87
23363;BME280;11853;48.080;11.960;2023-06-05T10:52:45;94837.03;;;20.38;73.95
23363;BME280;11853;48.080;11.960;2023-06-05T10:55:11;94831.81;;;20.36;74.95
23363;BME280;11853;48.080;11.960;2023-06-05T11:00:21;94840.16;;;20.28;75.10
23363;BME280;11853;48.080;11.960;2023-06-05T11:02:48;94841.41;;;20.32;74.53
23363;BME280;11853;48.080;11.960;2023-06-05T11:05:14;94830.22;;;20.22;76.00
23363;BME280;11853;48.080;11.960;2023-06-05T11:07:41;94835.16;;;20.38;74.08
23363;BME280;11853;48.080;11.960;2023-06-05T11:10:10;94834.72;;;20.41;73.67
23363;BME280;11853;48.080;11.960;2023-06-05T11:12:57;94837.81;;;20.45;74.07
23363;BME280;11853;48.080;11.960;2023-06-05T11:17:48;94833.25;;;20.45;73.65
23363;BME280;11853;48.080;11.960;2023-06-05T11:27:55;94835.91;;;20.59;75.93
23363;BME280;11853;48.080;11.960;2023-06-05T11:30:23;94818.19;;;20.76;72.75
23363;BME280;11853;48.080;11.960;2023-06-05T11:32:50;94817.69;;;20.92;72.44
23363;BME280;11853;48.080;11.960;2023-06-05T11:35:21;94823.94;;;20.86;73.44
23363;BME280;11853;48.080;11.960;2023-06-05T11:37:47;94822.81;;;21.01;73.69
23363;BME280;11853;48.080;11.960;2023-06-05T11:40:24;94823.81;;;21.06;72.55
23363;BME280;11853;48.080;11.960;2023-06-05T11:42:50;94818.97;;;21.15;71.22
23363;BME280;11853;48.080;11.960;2023-06-05T11:45:16;94820.44;;;21.11;69.51
23363;BME280;11853;48.080;11.960;2023-06-05T11:47:41;94816.53;;;21.07;69.27
23363;BME280;11853;48.080;11.960;2023-06-05T11:50:12;94821.13;;;21.00;71.09
23363;BME280;11853;48.080;11.960;2023-06-05T11:52:39;94818.25;;;21.01;70.68
23363;BME280;11853;48.080;11.960;2023-06-05T11:55:18;94820.25;;;21.06;68.67
23363;BME280;11853;48.080;11.960;2023-06-05T11:57:48;94815.66;;;21.13;70.08
23363;BME280;11853;48.080;11.960;2023-06-05T12:00:15;94819.97;;;21.21;69.66
23363;BME280;11853;48.080;11.960;2023-06-05T12:02:44;94815.34;;;21.28;69.08
23363;BME280;11853;48.080;11.960;2023-06-05T12:05:10;94816.31;;;21.33;66.24
23363;BME280;11853;48.080;11.960;2023-06-05T12:07:36;94814.72;;;21.26;66.93
23363;BME280;11853;48.080;11.960;2023-06-05T12:10:07;94808.06;;;21.28;66.13
23363;BME280;11853;48.080;11.960;2023-06-05T12:12:34;94816.66;;;21.19;67.92
23363;BME280;11853;48.080;11.960;2023-06-05T12:15:15;94813.47;;;21.28;65.87
23363;BME280;11853;48.080;11.960;2023-06-05T12:17:48;94807.81;;;21.05;66.92
23363;BME280;11853;48.080;11.960;2023-06-05T12:20:14;94802.44;;;21.05;69.24
23363;BME280;11853;48.080;11.960;2023-06-05T12:22:40;94800.13;;;21.08;68.82
23363;BME280;11853;48.080;11.960;2023-06-05T12:25:18;94799.28;;;21.08;69.94
23363;BME280;11853;48.080;11.960;2023-06-05T12:27:44;94797.53;;;21.20;70.23
23363;BME280;11853;48.080;11.960;2023-06-05T12:30:13;94795.06;;;21.19;69.34
23363;BME280;11853;48.080;11.960;2023-06-05T12:32:39;94795.44;;;21.22;68.75
23363;BME280;11853;48.080;11.960;2023-06-05T12:35:05;94797.47;;;21.02;69.93
23363;BME280;11853;48.080;11.960;2023-06-05T12:37:42;94780.53;;;20.95;70.26
23363;BME280;11853;48.080;11.960;2023-06-05T12:40:11;94788.75;;;21.00;70.09
23363;BME280;11853;48.080;11.960;2023-06-05T12:42:38;94789.94;;;21.10;71.54
23363;BME280;11853;48.080;11.960;2023-06-05T12:45:05;94790.75;;;21.11;71.95
23363;BME280;11853;48.080;11.960;2023-06-05T12:47:32;94785.38;;;21.11;70.90
23363;BME280;11853;48.080;11.960;2023-06-05T12:49:58;94783.94;;;21.08;69.04
23363;BME280;11853;48.080;11.960;2023-06-05T12:52:24;94791.19;;;21.08;69.55
23363;BME280;11853;48.080;11.960;2023-06-05T12:54:56;94790.00;;;21.04;70.33
23363;BME280;11853;48.080;11.960;2023-06-05T12:57:22;94784.53;;;21.10;69.96
23363;BME280;11853;48.080;11.960;2023-06-05T12:59:49;94782.09;;;21.09;69.97
23363;BME280;11853;48.080;11.960;2023-06-05T13:02:16;94788.22;;;21.16;68.71
23363;BME280;11853;48.080;11.960;2023-06-05T13:04:41;94790.03;;;20.97;70.10
23363;BME280;11853;48.080;11.960;2023-06-05T13:07:07;94783.50;;;20.80;70.27
23363;BME280;11853;48.080;11.960;2023-06-05T13:09:33;94781.91;;;20.72;71.35
23363;BME280;11853;48.080;11.960;2023-06-05T13:11:59;94779.38;;;20.77;72.06
23363;BME280;11853;48.080;11.960;2023-06-05T13:14:25;94780.94;;;20.91;70.61
23363;BME280;11853;48.080;11.960;2023-06-05T13:16:51;94778.38;;;21.03;69.48
23363;BME280;11853;48.080;11.960;2023-06-05T13:19:17;94779.16;;;20.79;70.61